sensor_id;sensor_type;location;lat;lon;timestamp;P1;durP1;ratioP1;P2;durP2;ratioP2
4939;SDS011;2485;49.326;7.214;2022-09-12T00:01:56;14.27;;;9.60;;
4939;SDS011;2485;49.326;7.214;2022-09-12T00:04:23;25.90;;;10.27;;
4939;SDS011;2485;49.326;7.214;2022-09-12T00:06:51;15.73;;;9.10;;
4939;SDS011;2485;49.326;7.214;2022-09-12T00:09:17;15.40;;;9.93;;
4939;SDS011;2485;49.326;7.214;2022-09-12T00:11:45;19.10;;;9.77;;
4939;SDS011;2485;49.326;7.214;2022-09-12T00:14:14;16.20;;;9.17;;
4939;SDS011;2485;49.326;7.214;2022-09-12T00:16:41;21.37;;;10.30;;
4939;SDS011;2485;49.326;7.214;2022-09-12T00:19:08;12.63;;;8.80;;
4939;SDS011;2485;49.326;7.214;2022-09-12T00:21:35;17.50;;;9.77;;
4939;SDS011;2485;49.326;7.214;2022-09-12T00:24:02;16.80;;;9.40;;
4939;SDS011;2485;49.326;7.214;2022-09-12T00:26:29;13.20;;;9.03;;
4939;SDS011;2485;49.326;7.214;2022-09-12T00:28:57;13.63;;;8.87;;
4939;SDS011;2485;49.326;7.214;2022-09-12T00:31:24;13.03;;;8.70;;
4939;SDS011;2485;49.326;7.214;2022-09-12T00:33:51;18.07;;;9.00;;
4939;SDS011;2485;49.326;7.214;2022-09-12T00:36:19;15.93;;;9.50;;
4939;SDS011;2485;49.326;7.214;2022-09-12T00:38:46;15.67;;;9.10;;
4939;SDS011;2485;49.326;7.214;2022-09-12T00:41:15;15.37;;;9.60;;
4939;SDS011;2485;49.326;7.214;2022-09-12T00:43:43;19.57;;;10.00;;
4939;SDS011;2485;49.326;7.214;2022-09-12T00:46:14;17.90;;;10.00;;
4939;SDS011;2485;49.326;7.214;2022-09-12T00:48:43;16.00;;;9.80;;
4939;SDS011;2485;49.326;7.214;2022-09-12T00:51:10;16.77;;;9.57;;
4939;SDS011;2485;49.326;7.214;2022-09-12T00:53:37;13.40;;;8.70;;
4939;SDS011;2485;49.326;7.214;2022-09-12T00:56:04;14.47;;;8.40;;
4939;SDS011;2485;49.326;7.214;2022-09-12T00:58:33;13.70;;;9.17;;
4939;SDS011;2485;49.326;7.214;2022-09-12T01:01:02;12.47;;;8.53;;
4939;SDS011;2485;49.326;7.214;2022-09-12T01:03:30;13.77;;;9.00;;
4939;SDS011;2485;49.326;7.214;2022-09-12T01:05:58;11.40;;;7.90;;
4939;SDS011;2485;49.326;7.214;2022-09-12T01:08:27;13.47;;;8.07;;
4939;SDS011;2485;49.326;7.214;2022-09-12T01:10:54;11.20;;;8.57;;
4939;SDS011;2485;49.326;7.214;2022-09-12T01:13:20;9.17;;;7.67;;
4939;SDS011;2485;49.326;7.214;2022-09-12T01:15:48;18.80;;;8.27;;
4939;SDS011;2485;49.326;7.214;2022-09-12T01:18:16;19.67;;;9.07;;
4939;SDS011;2485;49.326;7.214;2022-09-12T01:20:51;14.67;;;8.33;;
4939;SDS011;2485;49.326;7.214;2022-09-12T01:26:08;13.40;;;8.70;;
4939;SDS011;2485;49.326;7.214;2022-09-12T01:28:49;14.37;;;8.30;;
4939;SDS011;2485;49.326;7.214;2022-09-12T01:31:20;16.10;;;8.40;;
4939;SDS011;2485;49.326;7.214;2022-09-12T01:33:52;15.20;;;8.00;;
4939;SDS011;2485;49.326;7.214;2022-09-12T01:39:05;14.80;;;8.10;;
4939;SDS011;2485;49.326;7.214;2022-09-12T01:41:39;12.80;;;8.77;;
4939;SDS011;2485;49.326;7.214;2022-09-12T01:44:08;11.10;;;7.70;;
4939;SDS011;2485;49.326;7.214;2022-09-12T01:46:41;15.90;;;8.87;;
4939;SDS011;2485;49.326;7.214;2022-09-12T01:49:12;15.60;;;8.87;;
4939;SDS011;2485;49.326;7.214;2022-09-12T01:51:40;18.10;;;9.40;;
4939;SDS011;2485;49.326;7.214;2022-09-12T01:54:08;15.50;;;9.37;;
4939;SDS011;2485;49.326;7.214;2022-09-12T01:56:37;13.77;;;9.37;;
4939;SDS011;2485;49.326;7.214;2022-09-12T01:59:06;17.73;;;10.03;;
4939;SDS011;2485;49.326;7.214;2022-09-12T02:01:35;14.20;;;9.27;;
4939;SDS011;2485;49.326;7.214;2022-09-12T02:04:05;14.53;;;9.50;;
4939;SDS011;2485;49.326;7.214;2022-09-12T02:06:35;16.43;;;9.73;;
4939;SDS011;2485;49.326;7.214;2022-09-12T02:09:04;14.73;;;8.87;;
4939;SDS011;2485;49.326;7.214;2022-09-12T02:11:32;15.53;;;9.20;;
4939;SDS011;2485;49.326;7.214;2022-09-12T02:14:01;14.30;;;8.70;;
4939;SDS011;2485;49.326;7.214;2022-09-12T02:16:30;12.23;;;8.57;;
4939;SDS011;2485;49.326;7.214;2022-09-12T02:18:58;14.50;;;9.13;;
4939;SDS011;2485;49.326;7.214;2022-09-12T02:21:27;17.60;;;9.13;;
4939;SDS011;2485;49.326;7.214;2022-09-12T02:23:58;17.70;;;9.73;;
4939;SDS011;2485;49.326;7.214;2022-09-12T02:26:28;18.77;;;9.60;;
4939;SDS011;2485;49.326;7.214;2022-09-12T02:28:57;15.70;;;10.60;;
4939;SDS011;2485;49.326;7.214;2022-09-12T02:31:27;19.13;;;10.10;;
4939;SDS011;2485;49.326;7.214;2022-09-12T02:34:05;21.60;;;11.27;;
4939;SDS011;2485;49.326;7.214;2022-09-12T02:36:38;26.73;;;11.43;;
4939;SDS011;2485;49.326;7.214;2022-09-12T02:39:07;34.83;;;13.60;;
4939;SDS011;2485;49.326;7.214;2022-09-12T02:41:34;44.90;;;14.47;;
4939;SDS011;2485;49.326;7.214;2022-09-12T02:44:01;61.57;;;15.03;;
4939;SDS011;2485;49.326;7.214;2022-09-12T02:46:30;46.43;;;15.00;;
4939;SDS011;2485;49.326;7.214;2022-09-12T02:48:58;111.57;;;18.80;;
4939;SDS011;2485;49.326;7.214;2022-09-12T02:51:25;86.33;;;15.53;;
4939;SDS011;2485;49.326;7.214;2022-09-12T02:53:53;81.73;;;14.47;;
4939;SDS011;2485;49.326;7.214;2022-09-12T02:56:22;108.80;;;16.90;;
4939;SDS011;2485;49.326;7.214;2022-09-12T02:58:50;115.43;;;16.77;;
4939;SDS011;2485;49.326;7.214;2022-09-12T03:01:21;78.87;;;15.57;;
4939;SDS011;2485;49.326;7.214;2022-09-12T03:03:55;60.93;;;12.70;;
4939;SDS011;2485;49.326;7.214;2022-09-12T03:06:26;45.23;;;12.20;;
4939;SDS011;2485;49.326;7.214;2022-09-12T03:08:58;27.93;;;11.30;;
4939;SDS011;2485;49.326;7.214;2022-09-12T03:11:30;30.20;;;12.17;;
4939;SDS011;2485;49.326;7.214;2022-09-12T03:14:00;28.53;;;12.10;;
4939;SDS011;2485;49.326;7.214;2022-09-12T03:16:32;27.03;;;12.30;;
4939;SDS011;2485;49.326;7.214;2022-09-12T03:19:02;36.77;;;10.93;;
4939;SDS011;2485;49.326;7.214;2022-09-12T03:21:35;24.57;;;11.93;;
4939;SDS011;2485;49.326;7.214;2022-09-12T03:24:08;22.03;;;11.90;;
4939;SDS011;2485;49.326;7.214;2022-09-12T03:26:38;37.10;;;11.90;;
4939;SDS011;2485;49.326;7.214;2022-09-12T03:29:06;39.17;;;11.33;;
4939;SDS011;2485;49.326;7.214;2022-09-12T03:31:34;56.67;;;12.43;;
4939;SDS011;2485;49.326;7.214;2022-09-12T03:34:01;50.63;;;13.27;;
4939;SDS011;2485;49.326;7.214;2022-09-12T03:36:28;47.87;;;13.10;;
4939;SDS011;2485;49.326;7.214;2022-09-12T03:38:56;62.47;;;14.27;;
4939;SDS011;2485;49.326;7.214;2022-09-12T03:41:24;55.13;;;11.37;;
4939;SDS011;2485;49.326;7.214;2022-09-12T03:43:51;31.67;;;11.17;;
4939;SDS011;2485;49.326;7.214;2022-09-12T03:46:17;32.40;;;11.73;;
4939;SDS011;2485;49.326;7.214;2022-09-12T03:48:44;53.37;;;11.37;;
4939;SDS011;2485;49.326;7.214;2022-09-12T03:51:11;40.37;;;10.53;;
4939;SDS011;2485;49.326;7.214;2022-09-12T03:53:37;24.13;;;10.60;;
4939;SDS011;2485;49.326;7.214;2022-09-12T03:56:05;24.33;;;10.13;;
4939;SDS011;2485;49.326;7.214;2022-09-12T03:58:34;35.33;;;11.07;;
4939;SDS011;2485;49.326;7.214;2022-09-12T04:01:05;32.37;;;11.07;;
4939;SDS011;2485;49.326;7.214;2022-09-12T04:03:36;26.20;;;10.50;;
4939;SDS011;2485;49.326;7.214;2022-09-12T04:06:03;30.30;;;10.70;;
4939;SDS011;2485;49.326;7.214;2022-09-12T04:08:29;22.73;;;11.43;;
4939;SDS011;2485;49.326;7.214;2022-09-12T04:11:00;13.80;;;9.33;;
4939;SDS011;2485;49.326;7.214;2022-09-12T04:13:27;16.13;;;9.83;;
4939;SDS011;2485;49.326;7.214;2022-09-12T04:15:58;18.63;;;10.87;;
4939;SDS011;2485;49.326;7.214;2022-09-12T04:18:25;14.90;;;10.07;;
4939;SDS011;2485;49.326;7.214;2022-09-12T04:20:52;21.60;;;10.77;;
4939;SDS011;2485;49.326;7.214;2022-09-12T04:23:18;19.87;;;10.70;;
4939;SDS011;2485;49.326;7.214;2022-09-12T04:25:51;24.53;;;10.70;;
4939;SDS011;2485;49.326;7.214;2022-09-12T04:28:18;58.57;;;13.30;;
4939;SDS011;2485;49.326;7.214;2022-09-12T04:30:45;37.17;;;11.60;;
4939;SDS011;2485;49.326;7.214;2022-09-12T04:33:16;37.43;;;12.07;;
4939;SDS011;2485;49.326;7.214;2022-09-12T04:35:43;21.53;;;10.47;;
4939;SDS011;2485;49.326;7.214;2022-09-12T04:38:10;35.63;;;11.10;;
4939;SDS011;2485;49.326;7.214;2022-09-12T04:40:37;49.27;;;10.67;;
4939;SDS011;2485;49.326;7.214;2022-09-12T04:43:04;27.17;;;10.10;;
4939;SDS011;2485;49.326;7.214;2022-09-12T04:45:31;31.00;;;10.97;;
4939;SDS011;2485;49.326;7.214;2022-09-12T04:47:58;31.20;;;10.97;;
4939;SDS011;2485;49.326;7.214;2022-09-12T04:50:26;75.03;;;13.00;;
4939;SDS011;2485;49.326;7.214;2022-09-12T04:52:53;26.13;;;10.80;;
4939;SDS011;2485;49.326;7.214;2022-09-12T04:55:22;38.70;;;10.60;;
4939;SDS011;2485;49.326;7.214;2022-09-12T04:57:50;39.53;;;10.60;;
4939;SDS011;2485;49.326;7.214;2022-09-12T05:00:17;57.00;;;11.17;;
4939;SDS011;2485;49.326;7.214;2022-09-12T05:02:44;41.13;;;10.27;;
4939;SDS011;2485;49.326;7.214;2022-09-12T05:05:11;24.10;;;9.93;;
4939;SDS011;2485;49.326;7.214;2022-09-12T05:07:39;39.00;;;10.80;;
4939;SDS011;2485;49.326;7.214;2022-09-12T05:10:07;61.27;;;11.50;;
4939;SDS011;2485;49.326;7.214;2022-09-12T05:12:37;77.43;;;12.50;;
4939;SDS011;2485;49.326;7.214;2022-09-12T05:15:04;58.23;;;11.27;;
4939;SDS011;2485;49.326;7.214;2022-09-12T05:17:30;66.20;;;11.50;;
4939;SDS011;2485;49.326;7.214;2022-09-12T05:19:57;74.53;;;11.90;;
4939;SDS011;2485;49.326;7.214;2022-09-12T05:22:24;98.03;;;12.00;;
4939;SDS011;2485;49.326;7.214;2022-09-12T05:24:52;68.00;;;11.27;;
4939;SDS011;2485;49.326;7.214;2022-09-12T05:27:19;101.57;;;14.37;;
4939;SDS011;2485;49.326;7.214;2022-09-12T05:29:46;71.17;;;12.20;;
4939;SDS011;2485;49.326;7.214;2022-09-12T05:32:13;50.03;;;11.60;;
4939;SDS011;2485;49.326;7.214;2022-09-12T05:34:39;122.37;;;13.73;;
4939;SDS011;2485;49.326;7.214;2022-09-12T05:37:06;111.13;;;12.87;;
4939;SDS011;2485;49.326;7.214;2022-09-12T05:39:33;88.13;;;12.40;;
4939;SDS011;2485;49.326;7.214;2022-09-12T05:42:01;88.50;;;13.73;;
4939;SDS011;2485;49.326;7.214;2022-09-12T05:44:27;113.27;;;13.13;;
4939;SDS011;2485;49.326;7.214;2022-09-12T05:46:54;99.67;;;13.40;;
4939;SDS011;2485;49.326;7.214;2022-09-12T05:49:21;77.20;;;12.40;;
4939;SDS011;2485;49.326;7.214;2022-09-12T05:51:47;85.87;;;13.00;;
4939;SDS011;2485;49.326;7.214;2022-09-12T05:54:16;91.70;;;12.23;;
4939;SDS011;2485;49.326;7.214;2022-09-12T05:56:43;59.67;;;11.50;;
4939;SDS011;2485;49.326;7.214;2022-09-12T05:59:12;52.93;;;10.90;;
4939;SDS011;2485;49.326;7.214;2022-09-12T06:01:39;58.57;;;11.43;;
4939;SDS011;2485;49.326;7.214;2022-09-12T06:04:06;25.77;;;11.27;;
4939;SDS011;2485;49.326;7.214;2022-09-12T06:06:34;69.30;;;12.03;;
4939;SDS011;2485;49.326;7.214;2022-09-12T06:09:02;37.50;;;10.83;;
4939;SDS011;2485;49.326;7.214;2022-09-12T06:11:29;28.90;;;11.80;;
4939;SDS011;2485;49.326;7.214;2022-09-12T06:13:57;30.77;;;10.57;;
4939;SDS011;2485;49.326;7.214;2022-09-12T06:16:26;21.73;;;10.50;;
4939;SDS011;2485;49.326;7.214;2022-09-12T06:18:54;17.67;;;10.57;;
4939;SDS011;2485;49.326;7.214;2022-09-12T06:21:21;17.40;;;11.50;;
4939;SDS011;2485;49.326;7.214;2022-09-12T06:23:48;15.47;;;10.50;;
4939;SDS011;2485;49.326;7.214;2022-09-12T06:26:16;18.53;;;11.23;;
4939;SDS011;2485;49.326;7.214;2022-09-12T06:28:45;19.43;;;10.33;;
4939;SDS011;2485;49.326;7.214;2022-09-12T06:31:13;22.13;;;10.97;;
4939;SDS011;2485;49.326;7.214;2022-09-12T06:33:42;16.13;;;9.30;;
4939;SDS011;2485;49.326;7.214;2022-09-12T06:36:10;35.70;;;10.20;;
4939;SDS011;2485;49.326;7.214;2022-09-12T06:38:37;22.17;;;9.90;;
4939;SDS011;2485;49.326;7.214;2022-09-12T06:41:04;18.27;;;9.20;;
4939;SDS011;2485;49.326;7.214;2022-09-12T06:43:31;17.97;;;10.37;;
4939;SDS011;2485;49.326;7.214;2022-09-12T06:45:58;30.90;;;9.83;;
4939;SDS011;2485;49.326;7.214;2022-09-12T06:48:25;25.40;;;10.23;;
4939;SDS011;2485;49.326;7.214;2022-09-12T06:50:57;15.30;;;9.97;;
4939;SDS011;2485;49.326;7.214;2022-09-12T06:53:24;13.90;;;9.50;;
4939;SDS011;2485;49.326;7.214;2022-09-12T06:55:55;12.93;;;8.80;;
4939;SDS011;2485;49.326;7.214;2022-09-12T06:58:22;12.30;;;9.43;;
4939;SDS011;2485;49.326;7.214;2022-09-12T07:00:49;13.03;;;9.70;;
4939;SDS011;2485;49.326;7.214;2022-09-12T07:03:16;11.80;;;9.00;;
4939;SDS011;2485;49.326;7.214;2022-09-12T07:05:42;14.27;;;9.40;;
4939;SDS011;2485;49.326;7.214;2022-09-12T07:08:10;11.00;;;8.33;;
4939;SDS011;2485;49.326;7.214;2022-09-12T07:10:37;11.90;;;8.77;;
4939;SDS011;2485;49.326;7.214;2022-09-12T07:13:03;11.43;;;7.90;;
4939;SDS011;2485;49.326;7.214;2022-09-12T07:15:30;9.50;;;8.10;;
4939;SDS011;2485;49.326;7.214;2022-09-12T07:17:56;12.00;;;7.97;;
4939;SDS011;2485;49.326;7.214;2022-09-12T07:20:23;10.17;;;8.30;;
4939;SDS011;2485;49.326;7.214;2022-09-12T07:22:49;10.23;;;8.07;;
4939;SDS011;2485;49.326;7.214;2022-09-12T07:25:18;9.60;;;8.20;;
4939;SDS011;2485;49.326;7.214;2022-09-12T07:27:44;11.00;;;7.57;;
4939;SDS011;2485;49.326;7.214;2022-09-12T07:30:11;10.43;;;8.40;;
4939;SDS011;2485;49.326;7.214;2022-09-12T07:32:38;12.13;;;7.50;;
4939;SDS011;2485;49.326;7.214;2022-09-12T07:35:05;9.77;;;8.00;;
4939;SDS011;2485;49.326;7.214;2022-09-12T07:37:32;12.30;;;7.93;;
4939;SDS011;2485;49.326;7.214;2022-09-12T07:39:58;10.03;;;7.93;;
4939;SDS011;2485;49.326;7.214;2022-09-12T07:42:27;9.30;;;7.40;;
4939;SDS011;2485;49.326;7.214;2022-09-12T07:44:55;12.00;;;8.60;;
4939;SDS011;2485;49.326;7.214;2022-09-12T07:47:21;9.07;;;6.97;;
4939;SDS011;2485;49.326;7.214;2022-09-12T07:49:48;9.10;;;7.00;;
4939;SDS011;2485;49.326;7.214;2022-09-12T07:52:14;9.20;;;6.80;;
4939;SDS011;2485;49.326;7.214;2022-09-12T07:54:41;10.03;;;7.50;;
4939;SDS011;2485;49.326;7.214;2022-09-12T07:57:08;8.70;;;7.60;;
4939;SDS011;2485;49.326;7.214;2022-09-12T07:59:36;11.07;;;8.60;;
4939;SDS011;2485;49.326;7.214;2022-09-12T08:02:09;9.33;;;7.17;;
4939;SDS011;2485;49.326;7.214;2022-09-12T08:04:35;10.70;;;8.53;;
4939;SDS011;2485;49.326;7.214;2022-09-12T08:07:02;9.67;;;7.60;;
4939;SDS011;2485;49.326;7.214;2022-09-12T08:09:30;13.07;;;7.13;;
4939;SDS011;2485;49.326;7.214;2022-09-12T08:11:57;8.27;;;7.10;;
4939;SDS011;2485;49.326;7.214;2022-09-12T08:14:23;8.80;;;7.73;;
4939;SDS011;2485;49.326;7.214;2022-09-12T08:16:53;9.23;;;7.33;;
4939;SDS011;2485;49.326;7.214;2022-09-12T08:19:19;9.77;;;8.07;;
4939;SDS011;2485;49.326;7.214;2022-09-12T08:21:47;7.40;;;6.60;;
4939;SDS011;2485;49.326;7.214;2022-09-12T08:24:13;14.37;;;7.20;;
4939;SDS011;2485;49.326;7.214;2022-09-12T08:26:40;9.30;;;7.10;;
4939;SDS011;2485;49.326;7.214;2022-09-12T08:29:07;9.10;;;7.10;;
4939;SDS011;2485;49.326;7.214;2022-09-12T08:31:34;8.93;;;7.10;;
4939;SDS011;2485;49.326;7.214;2022-09-12T08:34:03;9.30;;;7.23;;
4939;SDS011;2485;49.326;7.214;2022-09-12T08:36:30;9.50;;;7.10;;
4939;SDS011;2485;49.326;7.214;2022-09-12T08:38:56;16.90;;;7.37;;
4939;SDS011;2485;49.326;7.214;2022-09-12T08:41:25;7.03;;;6.33;;
4939;SDS011;2485;49.326;7.214;2022-09-12T08:44:06;7.03;;;6.37;;
4939;SDS011;2485;49.326;7.214;2022-09-12T08:46:37;8.03;;;6.40;;
4939;SDS011;2485;49.326;7.214;2022-09-12T08:49:08;8.37;;;6.40;;
4939;SDS011;2485;49.326;7.214;2022-09-12T08:51:35;7.70;;;6.43;;
4939;SDS011;2485;49.326;7.214;2022-09-12T08:54:03;8.33;;;6.53;;
4939;SDS011;2485;49.326;7.214;2022-09-12T08:56:34;7.00;;;6.30;;
4939;SDS011;2485;49.326;7.214;2022-09-12T08:59:02;9.73;;;6.47;;
4939;SDS011;2485;49.326;7.214;2022-09-12T09:01:29;7.27;;;6.43;;
4939;SDS011;2485;49.326;7.214;2022-09-12T09:04:05;6.63;;;5.93;;
4939;SDS011;2485;49.326;7.214;2022-09-12T09:06:38;8.87;;;6.00;;
4939;SDS011;2485;49.326;7.214;2022-09-12T09:09:08;8.63;;;6.10;;
4939;SDS011;2485;49.326;7.214;2022-09-12T09:11:41;5.80;;;5.20;;
4939;SDS011;2485;49.326;7.214;2022-09-12T09:14:13;6.43;;;5.70;;
4939;SDS011;2485;49.326;7.214;2022-09-12T09:16:59;7.97;;;5.57;;
4939;SDS011;2485;49.326;7.214;2022-09-12T09:19:27;7.80;;;5.27;;
4939;SDS011;2485;49.326;7.214;2022-09-12T09:21:59;6.37;;;5.23;;
4939;SDS011;2485;49.326;7.214;2022-09-12T09:24:27;6.20;;;5.10;;
4939;SDS011;2485;49.326;7.214;2022-09-12T09:26:59;6.23;;;5.63;;
4939;SDS011;2485;49.326;7.214;2022-09-12T09:29:27;6.20;;;5.60;;
4939;SDS011;2485;49.326;7.214;2022-09-12T09:31:56;6.13;;;5.50;;
4939;SDS011;2485;49.326;7.214;2022-09-12T09:34:24;6.70;;;5.10;;
4939;SDS011;2485;49.326;7.214;2022-09-12T09:36:55;5.70;;;4.90;;
4939;SDS011;2485;49.326;7.214;2022-09-12T09:39:35;5.20;;;4.70;;
4939;SDS011;2485;49.326;7.214;2022-09-12T09:42:08;5.70;;;5.10;;
4939;SDS011;2485;49.326;7.214;2022-09-12T09:44:36;6.07;;;5.47;;
4939;SDS011;2485;49.326;7.214;2022-09-12T09:47:07;7.07;;;5.67;;
4939;SDS011;2485;49.326;7.214;2022-09-12T09:49:39;5.60;;;5.03;;
4939;SDS011;2485;49.326;7.214;2022-09-12T09:52:06;5.20;;;4.70;;
4939;SDS011;2485;49.326;7.214;2022-09-12T09:54:35;5.93;;;5.33;;
4939;SDS011;2485;49.326;7.214;2022-09-12T09:57:05;9.77;;;5.00;;
4939;SDS011;2485;49.326;7.214;2022-09-12T09:59:51;5.57;;;4.47;;
4939;SDS011;2485;49.326;7.214;2022-09-12T10:02:19;6.70;;;4.93;;
4939;SDS011;2485;49.326;7.214;2022-09-12T10:04:51;5.97;;;5.00;;
4939;SDS011;2485;49.326;7.214;2022-09-12T10:07:18;6.57;;;4.93;;
4939;SDS011;2485;49.326;7.214;2022-09-12T10:10:02;6.33;;;4.37;;
4939;SDS011;2485;49.326;7.214;2022-09-12T10:12:29;5.20;;;4.70;;
4939;SDS011;2485;49.326;7.214;2022-09-12T10:14:57;5.50;;;4.90;;
4939;SDS011;2485;49.326;7.214;2022-09-12T10:17:25;4.80;;;4.40;;
4939;SDS011;2485;49.326;7.214;2022-09-12T10:19:53;7.93;;;4.93;;
4939;SDS011;2485;49.326;7.214;2022-09-12T10:22:20;6.50;;;4.80;;
4939;SDS011;2485;49.326;7.214;2022-09-12T10:24:50;7.13;;;3.90;;
4939;SDS011;2485;49.326;7.214;2022-09-12T10:27:19;4.80;;;4.30;;
4939;SDS011;2485;49.326;7.214;2022-09-12T10:29:47;5.10;;;4.60;;
4939;SDS011;2485;49.326;7.214;2022-09-12T10:32:23;4.80;;;4.10;;
4939;SDS011;2485;49.326;7.214;2022-09-12T10:34:53;8.00;;;4.77;;
4939;SDS011;2485;49.326;7.214;2022-09-12T10:37:22;6.10;;;4.50;;
4939;SDS011;2485;49.326;7.214;2022-09-12T10:39:51;5.47;;;4.97;;
4939;SDS011;2485;49.326;7.214;2022-09-12T10:45:15;4.50;;;4.10;;
4939;SDS011;2485;49.326;7.214;2022-09-12T10:47:44;7.90;;;4.80;;
4939;SDS011;2485;49.326;7.214;2022-09-12T10:50:29;4.10;;;3.50;;
4939;SDS011;2485;49.326;7.214;2022-09-12T10:53:12;7.30;;;4.50;;
4939;SDS011;2485;49.326;7.214;2022-09-12T10:55:54;5.40;;;4.40;;
4939;SDS011;2485;49.326;7.214;2022-09-12T10:58:30;4.70;;;4.13;;
4939;SDS011;2485;49.326;7.214;2022-09-12T11:01:04;4.80;;;4.40;;
4939;SDS011;2485;49.326;7.214;2022-09-12T11:03:39;4.47;;;3.97;;
4939;SDS011;2485;49.326;7.214;2022-09-12T11:06:12;3.70;;;3.27;;
4939;SDS011;2485;49.326;7.214;2022-09-12T11:08:46;4.07;;;3.23;;
4939;SDS011;2485;49.326;7.214;2022-09-12T11:11:22;3.57;;;3.23;;
4939;SDS011;2485;49.326;7.214;2022-09-12T11:14:06;4.20;;;3.27;;
4939;SDS011;2485;49.326;7.214;2022-09-12T11:16:36;3.77;;;3.30;;
4939;SDS011;2485;49.326;7.214;2022-09-12T11:19:10;3.27;;;2.97;;
4939;SDS011;2485;49.326;7.214;2022-09-12T11:21:42;8.07;;;3.43;;
4939;SDS011;2485;49.326;7.214;2022-09-12T11:27:11;3.93;;;3.37;;
4939;SDS011;2485;49.326;7.214;2022-09-12T11:29:44;5.80;;;3.33;;
4939;SDS011;2485;49.326;7.214;2022-09-12T11:32:21;3.30;;;3.00;;
4939;SDS011;2485;49.326;7.214;2022-09-12T11:34:52;3.70;;;3.00;;
4939;SDS011;2485;49.326;7.214;2022-09-12T11:40:06;2.63;;;2.43;;
4939;SDS011;2485;49.326;7.214;2022-09-12T11:42:41;3.00;;;2.50;;
4939;SDS011;2485;49.326;7.214;2022-09-12T11:45:11;2.20;;;2.00;;
4939;SDS011;2485;49.326;7.214;2022-09-12T11:47:43;2.53;;;2.27;;
4939;SDS011;2485;49.326;7.214;2022-09-12T11:50:14;2.40;;;2.20;;
4939;SDS011;2485;49.326;7.214;2022-09-12T11:52:42;2.63;;;1.93;;
4939;SDS011;2485;49.326;7.214;2022-09-12T11:55:10;2.20;;;2.00;;
4939;SDS011;2485;49.326;7.214;2022-09-12T11:57:43;2.63;;;2.00;;
4939;SDS011;2485;49.326;7.214;2022-09-12T12:00:14;3.13;;;2.07;;
4939;SDS011;2485;49.326;7.214;2022-09-12T12:02:43;2.43;;;2.23;;
4939;SDS011;2485;49.326;7.214;2022-09-12T12:05:18;1.70;;;1.50;;
4939;SDS011;2485;49.326;7.214;2022-09-12T12:07:48;4.27;;;2.17;;
4939;SDS011;2485;49.326;7.214;2022-09-12T12:10:31;3.03;;;2.00;;
4939;SDS011;2485;49.326;7.214;2022-09-12T12:13:00;1.90;;;1.80;;
4939;SDS011;2485;49.326;7.214;2022-09-12T12:15:28;1.90;;;1.80;;
4939;SDS011;2485;49.326;7.214;2022-09-12T12:17:59;2.53;;;1.90;;
4939;SDS011;2485;49.326;7.214;2022-09-12T12:20:27;1.93;;;1.83;;
4939;SDS011;2485;49.326;7.214;2022-09-12T12:22:54;1.93;;;1.50;;
4939;SDS011;2485;49.326;7.214;2022-09-12T12:25:22;1.93;;;1.70;;
4939;SDS011;2485;49.326;7.214;2022-09-12T12:27:51;1.67;;;1.57;;
4939;SDS011;2485;49.326;7.214;2022-09-12T12:33:06;5.10;;;1.80;;
4939;SDS011;2485;49.326;7.214;2022-09-12T12:36:02;2.10;;;1.90;;
4939;SDS011;2485;49.326;7.214;2022-09-12T12:38:31;3.23;;;1.90;;
4939;SDS011;2485;49.326;7.214;2022-09-12T12:43:48;1.60;;;1.50;;
4939;SDS011;2485;49.326;7.214;2022-09-12T12:46:15;2.17;;;1.50;;
4939;SDS011;2485;49.326;7.214;2022-09-12T12:48:45;2.20;;;1.53;;
4939;SDS011;2485;49.326;7.214;2022-09-12T12:53:57;2.20;;;1.70;;
4939;SDS011;2485;49.326;7.214;2022-09-12T12:56:25;2.17;;;1.50;;
4939;SDS011;2485;49.326;7.214;2022-09-12T12:58:56;2.23;;;2.03;;
4939;SDS011;2485;49.326;7.214;2022-09-12T13:01:23;2.77;;;1.60;;
4939;SDS011;2485;49.326;7.214;2022-09-12T13:03:53;1.70;;;1.60;;
4939;SDS011;2485;49.326;7.214;2022-09-12T13:06:23;1.70;;;1.60;;
4939;SDS011;2485;49.326;7.214;2022-09-12T13:08:54;1.70;;;1.50;;
4939;SDS011;2485;49.326;7.214;2022-09-12T13:11:28;1.47;;;1.30;;
4939;SDS011;2485;49.326;7.214;2022-09-12T13:13:56;2.57;;;2.07;;
4939;SDS011;2485;49.326;7.214;2022-09-12T13:16:30;3.13;;;1.80;;
4939;SDS011;2485;49.326;7.214;2022-09-12T13:19:01;1.83;;;1.73;;
4939;SDS011;2485;49.326;7.214;2022-09-12T13:21:29;2.10;;;1.70;;
4939;SDS011;2485;49.326;7.214;2022-09-12T13:23:58;1.53;;;1.37;;
4939;SDS011;2485;49.326;7.214;2022-09-12T13:26:26;1.83;;;1.40;;
4939;SDS011;2485;49.326;7.214;2022-09-12T13:29:07;1.80;;;1.57;;
4939;SDS011;2485;49.326;7.214;2022-09-12T13:31:33;2.67;;;1.57;;
4939;SDS011;2485;49.326;7.214;2022-09-12T13:34:03;1.80;;;1.53;;
4939;SDS011;2485;49.326;7.214;2022-09-12T13:36:41;2.33;;;1.40;;
4939;SDS011;2485;49.326;7.214;2022-09-12T13:39:13;2.20;;;1.67;;
4939;SDS011;2485;49.326;7.214;2022-09-12T13:41:54;2.10;;;1.33;;
4939;SDS011;2485;49.326;7.214;2022-09-12T13:44:27;1.57;;;1.47;;
4939;SDS011;2485;49.326;7.214;2022-09-12T13:46:56;1.73;;;1.53;;
4939;SDS011;2485;49.326;7.214;2022-09-12T13:49:27;1.63;;;1.53;;
4939;SDS011;2485;49.326;7.214;2022-09-12T13:51:58;1.70;;;1.60;;
4939;SDS011;2485;49.326;7.214;2022-09-12T13:54:25;1.53;;;1.43;;
4939;SDS011;2485;49.326;7.214;2022-09-12T13:56:52;2.43;;;1.47;;
4939;SDS011;2485;49.326;7.214;2022-09-12T13:59:19;1.70;;;1.60;;
4939;SDS011;2485;49.326;7.214;2022-09-12T14:01:46;1.60;;;1.50;;
4939;SDS011;2485;49.326;7.214;2022-09-12T14:04:13;1.77;;;1.57;;
4939;SDS011;2485;49.326;7.214;2022-09-12T14:06:59;2.77;;;1.60;;
4939;SDS011;2485;49.326;7.214;2022-09-12T14:09:29;1.87;;;1.73;;
4939;SDS011;2485;49.326;7.214;2022-09-12T14:11:58;1.80;;;1.70;;
4939;SDS011;2485;49.326;7.214;2022-09-12T14:14:26;1.50;;;1.40;;
4939;SDS011;2485;49.326;7.214;2022-09-12T14:16:56;2.33;;;1.77;;
4939;SDS011;2485;49.326;7.214;2022-09-12T14:19:22;1.47;;;1.37;;
4939;SDS011;2485;49.326;7.214;2022-09-12T14:21:51;1.37;;;1.27;;
4939;SDS011;2485;49.326;7.214;2022-09-12T14:24:19;2.50;;;1.60;;
4939;SDS011;2485;49.326;7.214;2022-09-12T14:26:48;2.90;;;1.47;;
4939;SDS011;2485;49.326;7.214;2022-09-12T14:29:16;1.83;;;1.57;;
4939;SDS011;2485;49.326;7.214;2022-09-12T14:31:42;3.23;;;1.40;;
4939;SDS011;2485;49.326;7.214;2022-09-12T14:34:11;1.50;;;1.40;;
4939;SDS011;2485;49.326;7.214;2022-09-12T14:36:39;1.40;;;1.30;;
4939;SDS011;2485;49.326;7.214;2022-09-12T14:39:14;1.40;;;1.30;;
4939;SDS011;2485;49.326;7.214;2022-09-12T14:41:43;1.50;;;1.40;;
4939;SDS011;2485;49.326;7.214;2022-09-12T14:44:14;1.50;;;1.40;;
4939;SDS011;2485;49.326;7.214;2022-09-12T14:46:43;1.50;;;1.40;;
4939;SDS011;2485;49.326;7.214;2022-09-12T14:49:14;1.83;;;1.50;;
4939;SDS011;2485;49.326;7.214;2022-09-12T14:51:47;1.60;;;1.50;;
4939;SDS011;2485;49.326;7.214;2022-09-12T14:54:33;2.13;;;1.60;;
4939;SDS011;2485;49.326;7.214;2022-09-12T14:57:03;2.67;;;1.60;;
4939;SDS011;2485;49.326;7.214;2022-09-12T14:59:35;1.50;;;1.40;;
4939;SDS011;2485;49.326;7.214;2022-09-12T15:02:18;1.77;;;1.50;;
4939;SDS011;2485;49.326;7.214;2022-09-12T15:04:46;2.97;;;1.60;;
4939;SDS011;2485;49.326;7.214;2022-09-12T15:07:13;1.80;;;1.70;;
4939;SDS011;2485;49.326;7.214;2022-09-12T15:09:40;2.60;;;1.60;;
4939;SDS011;2485;49.326;7.214;2022-09-12T15:12:11;1.83;;;1.73;;
4939;SDS011;2485;49.326;7.214;2022-09-12T15:14:37;1.50;;;1.40;;
4939;SDS011;2485;49.326;7.214;2022-09-12T15:17:04;3.37;;;1.77;;
4939;SDS011;2485;49.326;7.214;2022-09-12T15:19:30;1.50;;;1.40;;
4939;SDS011;2485;49.326;7.214;2022-09-12T15:21:57;1.80;;;1.70;;
4939;SDS011;2485;49.326;7.214;2022-09-12T15:24:24;2.47;;;1.80;;
4939;SDS011;2485;49.326;7.214;2022-09-12T15:26:50;1.70;;;1.60;;
4939;SDS011;2485;49.326;7.214;2022-09-12T15:29:19;2.30;;;1.77;;
4939;SDS011;2485;49.326;7.214;2022-09-12T15:31:45;2.80;;;1.83;;
4939;SDS011;2485;49.326;7.214;2022-09-12T15:34:12;2.60;;;1.67;;
4939;SDS011;2485;49.326;7.214;2022-09-12T15:36:39;4.80;;;1.83;;
4939;SDS011;2485;49.326;7.214;2022-09-12T15:39:07;2.33;;;2.10;;
4939;SDS011;2485;49.326;7.214;2022-09-12T15:41:34;1.57;;;1.47;;